createdAt,value
2023-01-21T00:03:40.497Z,8.42
2023-01-21T00:18:40.804Z,7.23
2023-01-21T00:48:40.150Z,7.4
2023-01-21T01:03:40.964Z,8.34
2023-01-21T01:18:40.927Z,8.81
2023-01-21T01:33:40.708Z,8.44
2023-01-21T01:48:41.072Z,9.73
2023-01-21T02:03:41.758Z,10.26
2023-01-21T02:33:40.517Z,9.53
2023-01-21T03:18:40.949Z,14.32
2023-01-21T03:33:41.125Z,16.54
2023-01-21T03:48:40.482Z,17.87
2023-01-21T04:03:40.903Z,20.28
2023-01-21T04:33:40.997Z,22.54
2023-01-21T04:48:40.186Z,17.46
2023-01-21T05:03:40.954Z,11.98
2023-01-21T05:18:40.857Z,17.49
2023-01-21T05:48:40.160Z,18.03
2023-01-21T06:03:40.790Z,20.36
2023-01-21T06:18:40.878Z,28.1
2023-01-21T06:33:40.861Z,40.56
2023-01-21T06:48:40.934Z,37.24
2023-01-21T07:33:41.298Z,44.95
2023-01-21T08:03:41.174Z,34.32
2023-01-21T08:18:40.594Z,27.15
2023-01-21T08:33:50.750Z,37.71
2023-01-21T08:48:40.673Z,37
2023-01-21T09:03:40.464Z,35.57
2023-01-21T09:33:40.648Z,27.77
2023-01-21T09:48:41.221Z,32.46
2023-01-21T10:33:40.460Z,31.98
2023-01-21T10:48:40.878Z,27.31
2023-01-21T11:03:40.471Z,27.24
2023-01-21T11:33:40.477Z,22.49
2023-01-21T11:48:40.188Z,25.18
2023-01-21T12:03:40.828Z,28.1
2023-01-21T12:18:40.176Z,35.89
2023-01-21T12:33:40.568Z,25.72
2023-01-21T12:48:40.033Z,19.84
2023-01-21T13:03:40.994Z,17.76
2023-01-21T13:18:40.555Z,19.64
2023-01-21T13:33:40.291Z,18.64
2023-01-21T13:48:40.224Z,30.04
2023-01-21T14:03:40.402Z,23.9
2023-01-21T14:18:39.972Z,25.04
2023-01-21T14:33:40.407Z,26.67
2023-01-21T15:03:40.241Z,24.61
2023-01-21T15:18:40.756Z,25.64
2023-01-21T15:48:42.350Z,41.49
2023-01-21T16:03:40.313Z,24.78
2023-01-21T16:48:40.637Z,45.88
2023-01-21T17:33:40.368Z,29.71
2023-01-21T18:03:40.145Z,25.15
2023-01-21T18:33:40.777Z,24.52
2023-01-21T18:48:40.211Z,24.3
2023-01-21T19:03:40.873Z,25.99
2023-01-21T19:18:40.427Z,25.27
2023-01-21T19:33:39.931Z,24.83
2023-01-21T20:03:51.172Z,22.53
2023-01-21T20:33:41.959Z,11.98
2023-01-21T22:48:40.949Z,26.4
2023-01-21T23:03:40.896Z,13.23
2023-01-21T23:18:40.835Z,11.5
2023-01-21T23:33:40.257Z,12.22
2023-01-21T23:48:40.547Z,10.4
